Airfield :
LOGIN :

Register | Disclaimer

   EN    FR    IT 

 










Legend :    VFR   Marginal VFR   IFR   Intensive IFR   Very Intensive IFR
Visi :
Ceiling :
>= 8 km
>= 3000ft
5 to 8 km
1000 to 3000 ft
1500m to 5 km
500 to 1000 ft
800 to 1500m
200 to 500 ft
< 800m
< 200 ft
Symbols :   Thunderstorms  Fog  Heavy snow  Heavy precipitations  Wind > 20 kt
SIGMETs :     Misc.  Thunderstorms  Icing  Turbulence  Mountain Waves  Volcanic Ashes






- Airport Elevation : 119 ft
- IATA code : WAT


EIWF - Waterford

CURRENT METAR :
  • 161200Z 32008KT 280V020 9999 FEW020 SCT034 18/14 Q1014

EXPIRED METARs :
  • 161130Z 32008KT 270V360 9999 FEW019 SCT026 18/14 Q1014
  • 161100Z 32009KT 280V020 9999 FEW015 SCT023 SCT030 17/14 Q1013
  • 161030Z 33010KT 290V020 9999 FEW016 SCT026 17/14 Q1013
  • 161000Z 33009KT 280V030 9999 SCT018 SCT022 17/14 Q1013
  • 160930Z 33010KT 270V020 9999 SCT017 17/14 Q1012
  • 160900Z 34008KT 290V030 9999 SCT013 BKN018 16/14 Q1012
  • 160830Z 36005KT 320V030 9999 SCT010 BKN015 15/13 Q1012
  • 160800Z 35007KT 290V040 9999 SCT009 BKN012 15/14 Q1012

TAF TAF EIWF
Valid from the 16 at 12:00 until the 16 at 21:00 UTC


161100Z 1612/1621 32010KT 9999 FEW012 SCT020
BECMG 1613/1615 26007KT
ATIS : +353 51 877 000



MET'MAP, your aeronautical weather chart ! - Copyright ORBIFLY December 2007 - Disclaimer

ORBIFLY MET'MAP TEAM :

Programming & Development : Alexandra Zaïnal
Original concept : Baudouin d'Aumeries
Technical & hardware support : Manuel Goepfert
Assistance : Marc-Olivier Méhu




SOURCES & CREDITS :

   NOAA